Terminal Aerodrome Forecast
Issued by NWS

Home | Current Version | Previous Version | Text Only | Print | Product List | Glossary On
Versions: 1 2 3 4 5 6 7 8 9 10 11 12
000
FTUS44 KOUN 022320
TAFWWR
TAF
KWWR 022320Z 0300/0324 05013G21KT P6SM SCT090
     FM030200 04008KT 6SM -RA SCT020 OVC035
     FM030600 05008KT 6SM -RA OVC025
     FM030900 04006KT 5SM -RA OVC009=

USA.gov is the U.S. government's official web portal to all federal, state and local government web resources and services.